createdAt,value
2023-03-04T00:02:13.973Z,4.49
2023-03-04T00:05:05.625Z,4.47
2023-03-04T00:08:00.900Z,4.51
2023-03-04T00:10:46.574Z,4.55
2023-03-04T00:13:31.466Z,4.51
2023-03-04T00:16:16.395Z,4.53
2023-03-04T00:19:03.818Z,4.55
2023-03-04T00:21:48.907Z,4.57
2023-03-04T00:24:34.053Z,4.45
2023-03-04T00:27:19.335Z,4.38
2023-03-04T00:30:07.126Z,4.52
2023-03-04T00:32:52.826Z,4.48
2023-03-04T00:35:38.133Z,4.59
2023-03-04T00:38:23.299Z,4.60
2023-03-04T00:41:08.316Z,4.55
2023-03-04T00:43:53.886Z,4.64
2023-03-04T00:46:39.052Z,4.60
2023-03-04T00:49:24.432Z,4.57
2023-03-04T00:52:09.361Z,4.61
2023-03-04T00:54:54.835Z,4.64
2023-03-04T00:57:39.625Z,4.54
2023-03-04T01:00:24.621Z,4.56
2023-03-04T01:03:09.997Z,4.48
2023-03-04T01:05:55.381Z,4.64
2023-03-04T01:08:40.782Z,4.69
2023-03-04T01:11:26.116Z,4.71
2023-03-04T01:14:11.125Z,4.71
2023-03-04T01:16:56.534Z,4.68
2023-03-04T01:19:41.862Z,4.68
2023-03-04T01:22:27.288Z,4.75
2023-03-04T01:25:12.269Z,4.61
2023-03-04T01:28:02.731Z,4.67
2023-03-04T01:30:48.033Z,4.65
2023-03-04T01:33:33.362Z,4.65
2023-03-04T01:36:18.876Z,4.73
2023-03-04T01:39:04.975Z,4.68
2023-03-04T01:41:50.209Z,4.73
2023-03-04T01:44:35.270Z,4.64
2023-03-04T01:47:23.469Z,4.61
2023-03-04T01:50:33.206Z,4.65
2023-03-04T01:53:27.383Z,4.63
2023-03-04T01:56:20.366Z,4.57
2023-03-04T01:59:23.647Z,4.47
2023-03-04T02:02:09.145Z,4.52
2023-03-04T02:04:54.430Z,4.49
2023-03-04T02:07:39.411Z,4.64
2023-03-04T02:10:24.972Z,4.64
2023-03-04T02:13:15.163Z,4.49
2023-03-04T02:16:01.006Z,4.57
2023-03-04T02:18:46.164Z,4.62
2023-03-04T02:21:33.312Z,4.65
2023-03-04T02:24:23.659Z,4.58
2023-03-04T02:27:09.072Z,4.61
2023-03-04T02:29:57.192Z,4.44
2023-03-04T02:33:02.329Z,4.53
2023-03-04T02:35:47.896Z,4.45
2023-03-04T02:38:33.106Z,4.40
2023-03-04T02:41:22.912Z,4.47
2023-03-04T02:44:28.407Z,4.42
2023-03-04T02:47:16.475Z,4.46
2023-03-04T02:50:01.687Z,4.57
2023-03-04T02:52:46.356Z,4.48
2023-03-04T02:55:36.243Z,4.46
2023-03-04T02:58:30.571Z,4.47
2023-03-04T03:01:15.568Z,4.48
2023-03-04T03:07:51.081Z,4.52
2023-03-04T03:10:36.274Z,4.60
2023-03-04T03:13:21.108Z,4.59
2023-03-04T03:16:06.217Z,4.59
2023-03-04T03:18:51.470Z,4.54
2023-03-04T03:21:36.799Z,4.64
2023-03-04T03:24:21.583Z,4.64
2023-03-04T03:27:06.910Z,4.47
2023-03-04T03:29:51.898Z,4.24
2023-03-04T03:32:37.701Z,4.36
2023-03-04T03:35:22.883Z,4.24
2023-03-04T03:38:08.420Z,4.30
2023-03-04T03:40:53.968Z,4.31
2023-03-04T03:43:38.857Z,4.41
2023-03-04T03:46:24.192Z,4.33
2023-03-04T03:49:15.548Z,4.26
2023-03-04T03:52:01.001Z,4.29
2023-03-04T03:54:46.303Z,4.37
2023-03-04T03:57:31.166Z,4.47
2023-03-04T04:00:19.962Z,4.45
2023-03-04T04:03:05.945Z,4.42
2023-03-04T04:05:51.161Z,4.44
2023-03-04T04:08:36.020Z,4.45
2023-03-04T04:11:21.310Z,4.41
2023-03-04T04:14:06.696Z,4.46
2023-03-04T04:16:52.036Z,4.45
2023-03-04T04:19:37.789Z,4.32
2023-03-04T04:22:23.190Z,4.33
2023-03-04T04:25:08.438Z,4.33
2023-03-04T04:27:53.483Z,4.34
2023-03-04T04:30:38.717Z,4.44
2023-03-04T04:33:23.972Z,4.47
2023-03-04T04:36:14.294Z,4.29
2023-03-04T04:38:59.278Z,4.33
2023-03-04T04:41:45.549Z,4.33
2023-03-04T04:44:30.833Z,4.29
2023-03-04T04:47:15.583Z,4.36
2023-03-04T04:50:00.933Z,4.45
2023-03-04T04:52:46.003Z,4.47
2023-03-04T04:55:43.437Z,4.51
2023-03-04T04:58:40.667Z,4.48
2023-03-04T05:01:56.270Z,4.55
2023-03-04T05:04:55.454Z,4.39
2023-03-04T05:08:20.162Z,4.29
2023-03-04T05:11:06.070Z,4.26
2023-03-04T05:13:51.307Z,4.27
2023-03-04T05:16:36.673Z,4.28
2023-03-04T05:19:22.391Z,4.39
2023-03-04T05:22:08.358Z,4.30
2023-03-04T05:24:53.751Z,4.21
2023-03-04T05:27:38.610Z,4.29
2023-03-04T05:30:24.046Z,4.38
2023-03-04T05:33:09.621Z,4.41
2023-03-04T05:35:54.700Z,4.29
2023-03-04T05:38:40.203Z,4.26
2023-03-04T05:41:25.536Z,4.34
2023-03-04T05:44:10.858Z,4.38
2023-03-04T05:46:56.092Z,4.39
2023-03-04T05:49:40.995Z,4.41
2023-03-04T05:52:25.673Z,4.29
2023-03-04T05:55:11.107Z,4.21
2023-03-04T05:57:56.841Z,4.24
2023-03-04T06:00:42.014Z,4.36
2023-03-04T06:03:27.276Z,4.37
2023-03-04T06:06:12.794Z,4.36
2023-03-04T06:08:57.938Z,4.42
2023-03-04T06:11:43.229Z,4.40
2023-03-04T06:14:28.277Z,4.40
2023-03-04T06:17:14.019Z,4.40
2023-03-04T06:19:59.221Z,4.36
2023-03-04T06:22:44.193Z,4.16
2023-03-04T06:25:29.349Z,4.23
2023-03-04T06:28:14.686Z,4.29
2023-03-04T06:30:59.587Z,4.27
2023-03-04T06:33:44.749Z,4.24
2023-03-04T06:36:29.847Z,4.23
2023-03-04T06:39:14.881Z,4.08
2023-03-04T06:41:59.913Z,4.11
2023-03-04T06:44:45.007Z,4.22
2023-03-04T06:47:30.319Z,4.28
2023-03-04T06:50:15.376Z,4.11
2023-03-04T06:53:00.766Z,4.22
2023-03-04T06:55:46.319Z,4.09
2023-03-04T06:58:31.395Z,4.16
2023-03-04T07:01:22.439Z,4.12
2023-03-04T07:04:07.531Z,4.22
2023-03-04T07:06:52.823Z,4.17
2023-03-04T07:09:37.931Z,4.07
2023-03-04T07:12:23.398Z,4.15
2023-03-04T07:15:09.348Z,4.19
2023-03-04T07:17:54.878Z,4.23
2023-03-04T07:20:40.027Z,3.94
2023-03-04T07:23:25.029Z,4.02
2023-03-04T07:26:10.431Z,4.10
2023-03-04T07:28:55.719Z,4.17
2023-03-04T07:31:40.989Z,4.26
2023-03-04T07:34:25.938Z,4.17
2023-03-04T07:37:10.793Z,4.23
2023-03-04T07:39:55.943Z,4.34
2023-03-04T07:42:41.068Z,4.51
2023-03-04T07:45:28.096Z,4.46
2023-03-04T07:48:13.472Z,4.48
2023-03-04T07:51:12.341Z,4.29
2023-03-04T07:54:00.070Z,4.43
2023-03-04T07:56:45.671Z,4.34
2023-03-04T07:59:30.774Z,4.41
2023-03-04T08:02:16.269Z,4.32
2023-03-04T08:05:01.712Z,4.42
2023-03-04T08:07:47.067Z,4.49
2023-03-04T08:10:32.536Z,4.61
2023-03-04T08:13:17.642Z,4.52
2023-03-04T08:16:03.761Z,4.33
2023-03-04T08:18:54.391Z,4.24
2023-03-04T08:21:39.270Z,4.38
2023-03-04T08:24:24.736Z,4.28
2023-03-04T08:27:10.295Z,4.38
2023-03-04T08:29:55.556Z,4.37
2023-03-04T08:32:40.738Z,4.38
2023-03-04T08:35:25.917Z,4.34
2023-03-04T08:38:11.310Z,4.25
2023-03-04T08:40:56.680Z,4.26
2023-03-04T08:43:41.792Z,4.46
2023-03-04T08:46:27.768Z,4.47
2023-03-04T08:49:13.620Z,4.26
2023-03-04T08:51:58.838Z,4.23
2023-03-04T08:54:44.135Z,4.47
2023-03-04T08:57:29.252Z,4.49
2023-03-04T09:00:14.920Z,4.54
2023-03-04T09:03:00.227Z,4.38
2023-03-04T09:05:47.142Z,4.44
2023-03-04T09:08:33.170Z,4.50
2023-03-04T09:11:18.583Z,4.45
2023-03-04T09:14:04.399Z,4.40
2023-03-04T09:16:49.169Z,4.47
2023-03-04T09:19:34.037Z,4.52
2023-03-04T09:22:19.315Z,4.44
2023-03-04T09:25:05.073Z,4.38
2023-03-04T09:27:50.543Z,4.42
2023-03-04T09:30:36.029Z,4.47
2023-03-04T09:33:21.144Z,4.48
2023-03-04T09:36:06.935Z,4.38
2023-03-04T09:38:52.354Z,4.42
2023-03-04T09:41:41.881Z,4.51
2023-03-04T09:44:43.107Z,4.53
2023-03-04T09:47:30.427Z,4.47
2023-03-04T09:50:15.713Z,4.48
2023-03-04T09:53:14.355Z,4.38
2023-03-04T09:56:00.297Z,4.60
2023-03-04T09:58:55.367Z,4.59
2023-03-04T10:01:53.787Z,4.58
2023-03-04T10:04:51.422Z,4.66
2023-03-04T10:07:41.159Z,4.75
2023-03-04T10:10:34.934Z,4.72
2023-03-04T10:13:30.933Z,4.69
2023-03-04T10:16:21.360Z,4.59
2023-03-04T10:19:28.601Z,4.64
2023-03-04T10:22:20.760Z,4.69
2023-03-04T10:25:17.762Z,4.87
2023-03-04T10:28:12.238Z,4.99
2023-03-04T10:31:09.249Z,5.09
2023-03-04T10:37:01.607Z,5.17
2023-03-04T10:39:49.608Z,5.34
2023-03-04T10:42:35.072Z,5.27
2023-03-04T10:45:26.202Z,5.37
2023-03-04T10:48:20.125Z,5.38
2023-03-04T10:51:19.998Z,5.37
2023-03-04T10:54:18.101Z,5.43
2023-03-04T10:57:05.725Z,5.45
2023-03-04T10:59:58.271Z,5.49
2023-03-04T11:02:45.958Z,5.47
2023-03-04T11:05:32.607Z,5.52
2023-03-04T11:08:19.304Z,5.67
2023-03-04T11:11:22.418Z,5.76
2023-03-04T11:14:24.847Z,5.97
2023-03-04T11:17:26.810Z,5.96
2023-03-04T11:20:35.845Z,6.03
2023-03-04T11:23:39.393Z,6.06
2023-03-04T11:26:54.064Z,6.05
2023-03-04T11:29:48.431Z,5.92
2023-03-04T11:32:40.130Z,6.09
2023-03-04T11:35:44.668Z,6.13
2023-03-04T11:38:49.385Z,6.28
2023-03-04T11:41:39.434Z,6.83
2023-03-04T11:44:24.518Z,6.76
2023-03-04T11:47:19.576Z,6.90
2023-03-04T11:50:10.776Z,6.82
2023-03-04T11:53:04.575Z,6.89
2023-03-04T11:56:20.063Z,6.94
2023-03-04T11:59:21.515Z,6.77
2023-03-04T12:02:16.298Z,6.80
2023-03-04T12:05:27.017Z,6.52
2023-03-04T12:08:29.851Z,6.57
2023-03-04T12:11:58.945Z,6.68
2023-03-04T12:14:55.315Z,6.75
2023-03-04T12:17:46.949Z,6.78
2023-03-04T12:20:44.699Z,6.83
2023-03-04T12:23:38.915Z,6.64
2023-03-04T12:26:46.833Z,6.69
2023-03-04T12:29:32.147Z,6.74
2023-03-04T12:32:23.116Z,6.62
2023-03-04T12:35:47.242Z,6.62
2023-03-04T12:38:45.679Z,6.68
2023-03-04T12:42:09.578Z,6.69
2023-03-04T12:45:03.596Z,6.72
2023-03-04T12:48:18.271Z,6.66
2023-03-04T12:51:25.514Z,6.69
2023-03-04T12:54:32.774Z,6.61
2023-03-04T12:57:23.607Z,6.70
2023-03-04T13:00:21.050Z,6.78
2023-03-04T13:03:19.209Z,6.89
2023-03-04T13:06:04.732Z,6.95
2023-03-04T13:08:59.439Z,6.97
2023-03-04T13:11:44.423Z,6.93
2023-03-04T13:14:31.665Z,6.88
2023-03-04T13:17:50.334Z,6.99
2023-03-04T13:20:38.353Z,7.01
2023-03-04T13:23:28.908Z,7.10
2023-03-04T13:26:19.255Z,7.11
2023-03-04T13:29:13.638Z,7.27
2023-03-04T13:31:58.632Z,7.34
2023-03-04T13:34:52.307Z,7.41
2023-03-04T13:37:37.689Z,7.57
2023-03-04T13:40:22.697Z,8.05
2023-03-04T13:43:28.194Z,8.37
2023-03-04T13:46:19.729Z,8.58
2023-03-04T13:49:07.953Z,8.55
2023-03-04T13:51:53.409Z,8.87
2023-03-04T13:54:38.353Z,9.69
2023-03-04T13:57:23.324Z,9.92
2023-03-04T14:00:12.581Z,10.42
2023-03-04T14:03:12.838Z,10.79
2023-03-04T14:06:12.528Z,10.02
2023-03-04T14:08:58.236Z,9.26
2023-03-04T14:11:44.104Z,8.86
2023-03-04T14:14:48.435Z,8.59
2023-03-04T14:17:36.269Z,8.41
2023-03-04T14:20:32.137Z,8.26
2023-03-04T14:23:33.932Z,8.06
2023-03-04T14:26:19.496Z,7.90
2023-03-04T14:29:29.281Z,7.84
2023-03-04T14:32:14.827Z,7.60
2023-03-04T14:35:18.182Z,7.56
2023-03-04T14:38:22.855Z,7.44
2023-03-04T14:41:21.754Z,7.32
2023-03-04T14:44:25.199Z,7.28
2023-03-04T14:47:19.526Z,7.17
2023-03-04T14:50:07.483Z,6.99
2023-03-04T14:53:15.732Z,7.05
2023-03-04T14:56:04.900Z,6.70
2023-03-04T14:58:55.148Z,6.83
2023-03-04T15:01:40.322Z,6.90
2023-03-04T15:04:25.169Z,6.89
2023-03-04T15:07:20.908Z,6.92
2023-03-04T15:10:11.299Z,7.02
2023-03-04T15:13:00.272Z,7.08
2023-03-04T15:15:47.108Z,7.19
2023-03-04T15:18:32.268Z,7.12
2023-03-04T15:21:20.779Z,7.10
2023-03-04T15:24:08.300Z,7.00
2023-03-04T15:26:53.332Z,7.01
2023-03-04T15:29:38.278Z,6.95
2023-03-04T15:32:23.861Z,6.89
2023-03-04T15:35:13.089Z,6.94
2023-03-04T15:37:58.873Z,6.82
2023-03-04T15:40:44.376Z,6.81
2023-03-04T15:43:29.835Z,6.75
2023-03-04T15:46:16.970Z,6.65
2023-03-04T15:49:03.388Z,6.63
2023-03-04T15:51:48.565Z,6.63
2023-03-04T15:54:33.793Z,6.58
2023-03-04T15:57:25.918Z,6.61
2023-03-04T16:00:12.818Z,6.58
2023-03-04T16:02:58.214Z,6.58
2023-03-04T16:05:48.151Z,6.48
2023-03-04T16:08:33.299Z,6.57
2023-03-04T16:11:21.775Z,6.46
2023-03-04T16:14:06.831Z,6.42
2023-03-04T16:16:52.163Z,6.40
2023-03-04T16:19:36.912Z,6.37
2023-03-04T16:22:25.268Z,6.35
2023-03-04T16:25:12.855Z,6.11
2023-03-04T16:27:58.698Z,6.16
2023-03-04T16:30:44.114Z,5.92
2023-03-04T16:33:29.270Z,6.01
2023-03-04T16:36:16.402Z,5.78
2023-03-04T16:39:06.973Z,5.63
2023-03-04T16:41:52.516Z,5.46
2023-03-04T16:44:37.429Z,5.36
2023-03-04T16:47:22.332Z,5.33
2023-03-04T16:50:07.688Z,5.34
2023-03-04T16:52:54.572Z,5.34
2023-03-04T16:55:39.623Z,5.38
2023-03-04T16:58:25.246Z,5.39
2023-03-04T17:01:18.426Z,5.31
2023-03-04T17:04:03.854Z,5.29
2023-03-04T17:06:48.799Z,5.35
2023-03-04T17:09:34.238Z,5.30
2023-03-04T17:12:18.981Z,5.32
2023-03-04T17:15:05.054Z,5.21
2023-03-04T17:17:50.346Z,5.26
2023-03-04T17:20:35.783Z,5.29
2023-03-04T17:23:20.584Z,5.33
2023-03-04T17:26:05.965Z,5.26
2023-03-04T17:28:51.459Z,5.24
2023-03-04T17:31:37.065Z,5.20
2023-03-04T17:34:22.448Z,5.24
2023-03-04T17:37:07.346Z,5.24
2023-03-04T17:39:53.047Z,5.28
2023-03-04T17:42:37.819Z,5.34
2023-03-04T17:45:22.641Z,5.29
2023-03-04T17:48:09.331Z,5.24
2023-03-04T17:50:54.298Z,5.23
2023-03-04T17:53:39.846Z,5.05
2023-03-04T17:56:24.993Z,4.99
2023-03-04T17:59:15.501Z,5.03
2023-03-04T18:02:00.645Z,4.93
2023-03-04T18:04:46.048Z,4.82
2023-03-04T18:07:31.305Z,4.74
2023-03-04T18:10:16.458Z,4.75
2023-03-04T18:13:01.371Z,4.71
2023-03-04T18:15:46.525Z,4.72
2023-03-04T18:18:31.770Z,4.70
2023-03-04T18:21:18.192Z,4.69
2023-03-04T18:24:04.038Z,4.65
2023-03-04T18:26:49.258Z,4.60
2023-03-04T18:29:34.382Z,4.66
2023-03-04T18:32:19.775Z,4.69
2023-03-04T18:35:05.566Z,4.69
2023-03-04T18:37:50.683Z,4.66
2023-03-04T18:40:39.002Z,4.64
2023-03-04T18:43:24.202Z,4.65
2023-03-04T18:46:16.644Z,4.64
2023-03-04T18:49:05.141Z,4.73
2023-03-04T18:51:51.196Z,4.75
2023-03-04T18:54:36.404Z,4.78
2023-03-04T18:57:21.657Z,4.83
2023-03-04T19:00:08.986Z,4.81
2023-03-04T19:03:04.272Z,4.84
2023-03-04T19:05:49.193Z,4.83
2023-03-04T19:08:35.307Z,4.89
2023-03-04T19:11:21.837Z,4.91
2023-03-04T19:14:07.178Z,4.92
2023-03-04T19:16:52.698Z,4.93
2023-03-04T19:19:37.969Z,4.89
2023-03-04T19:22:23.411Z,4.91
2023-03-04T19:25:09.174Z,4.81
2023-03-04T19:27:54.249Z,4.84
2023-03-04T19:30:40.917Z,4.89
2023-03-04T19:33:25.963Z,4.83
2023-03-04T19:36:11.336Z,4.86
2023-03-04T19:38:56.123Z,4.74
2023-03-04T19:41:41.691Z,4.83
2023-03-04T19:44:27.340Z,4.85
2023-03-04T19:47:12.494Z,4.81
2023-03-04T19:49:57.264Z,4.81
2023-03-04T19:52:42.060Z,4.82
2023-03-04T19:55:27.744Z,4.83
2023-03-04T19:58:12.908Z,4.68
2023-03-04T20:00:58.399Z,4.68
2023-03-04T20:03:43.771Z,4.65
2023-03-04T20:06:29.425Z,4.62
2023-03-04T20:09:15.414Z,4.59
2023-03-04T20:12:00.312Z,4.58
2023-03-04T20:14:45.152Z,4.59
2023-03-04T20:17:30.032Z,4.57
2023-03-04T20:20:15.113Z,4.57
2023-03-04T20:22:59.931Z,4.48
2023-03-04T20:25:45.198Z,4.52
2023-03-04T20:28:30.701Z,4.57
2023-03-04T20:31:26.781Z,4.54
2023-03-04T20:34:13.129Z,4.56
2023-03-04T20:37:00.051Z,4.53
2023-03-04T20:39:45.311Z,4.46
2023-03-04T20:42:30.745Z,4.52
2023-03-04T20:45:15.585Z,4.43
2023-03-04T20:48:00.546Z,4.45
2023-03-04T20:50:45.510Z,4.54
2023-03-04T20:53:30.366Z,4.52
2023-03-04T20:56:15.639Z,4.45
2023-03-04T20:59:03.228Z,4.40
2023-03-04T21:01:48.474Z,4.48
2023-03-04T21:04:34.317Z,4.41
2023-03-04T21:07:19.597Z,4.28
2023-03-04T21:10:05.377Z,4.02
2023-03-04T21:12:50.650Z,3.96
2023-03-04T21:15:35.697Z,3.91
2023-03-04T21:18:21.009Z,3.91
2023-03-04T21:21:20.748Z,3.83
2023-03-04T21:24:05.848Z,3.90
2023-03-04T21:26:51.377Z,3.85
2023-03-04T21:29:36.831Z,3.74
2023-03-04T21:32:26.798Z,3.83
2023-03-04T21:35:13.468Z,3.84
2023-03-04T21:37:58.987Z,3.84
2023-03-04T21:40:44.259Z,3.87
2023-03-04T21:43:29.796Z,3.89
2023-03-04T21:46:16.157Z,3.93
2023-03-04T21:49:02.232Z,3.76
2023-03-04T21:51:47.448Z,3.77
2023-03-04T21:54:32.408Z,3.73
2023-03-04T21:57:19.397Z,3.75
2023-03-04T22:00:06.591Z,3.81
2023-03-04T22:02:52.008Z,3.75
2023-03-04T22:05:42.166Z,3.65
2023-03-04T22:08:27.572Z,3.78
2023-03-04T22:11:12.449Z,3.77
2023-03-04T22:13:59.761Z,3.76
2023-03-04T22:16:54.476Z,3.80
2023-03-04T22:19:40.856Z,3.47
2023-03-04T22:22:25.843Z,3.53
2023-03-04T22:25:31.251Z,3.58
2023-03-04T22:28:16.270Z,3.56
2023-03-04T22:31:01.456Z,3.62
2023-03-04T22:33:46.932Z,3.64
2023-03-04T22:36:33.752Z,3.66
2023-03-04T22:39:19.085Z,3.51
2023-03-04T22:42:04.630Z,3.39
2023-03-04T22:44:49.832Z,3.42
2023-03-04T22:47:34.794Z,3.44
2023-03-04T22:50:21.852Z,3.49
2023-03-04T22:53:11.264Z,3.33
2023-03-04T22:56:12.607Z,3.26
2023-03-04T22:59:36.118Z,3.25
2023-03-04T23:06:11.677Z,3.44
2023-03-04T23:08:57.833Z,3.38
2023-03-04T23:11:42.924Z,3.30
2023-03-04T23:14:28.341Z,3.20
2023-03-04T23:17:13.736Z,3.27
2023-03-04T23:19:59.142Z,3.21
2023-03-04T23:22:46.016Z,3.30
2023-03-04T23:25:31.277Z,3.38
2023-03-04T23:28:16.038Z,3.31
2023-03-04T23:31:01.510Z,3.28
2023-03-04T23:33:47.735Z,3.25
2023-03-04T23:36:36.261Z,3.32
2023-03-04T23:39:21.673Z,3.41
2023-03-04T23:42:06.737Z,3.37
2023-03-04T23:44:52.009Z,3.43
2023-03-04T23:47:37.339Z,3.45
2023-03-04T23:50:22.335Z,3.51
2023-03-04T23:53:07.107Z,3.54
2023-03-04T23:55:52.015Z,3.63
2023-03-04T23:58:37.022Z,3.67
